sensor_id;sensor_type;location;lat;lon;timestamp;P1;durP1;ratioP1;P2;durP2;ratioP2
74741;SDS011;76291;48.288;16.314;2024-03-02T00:00:10;88.2;;;60.0;;
74741;SDS011;76291;48.288;16.314;2024-03-02T00:01:01;88.2;;;60.0;;
74741;SDS011;76291;48.288;16.314;2024-03-02T00:02:03;88.2;;;60.0;;
74741;SDS011;76291;48.288;16.314;2024-03-02T00:03:01;88.2;;;60.0;;
74741;SDS011;76291;48.288;16.314;2024-03-02T00:04:03;88.2;;;60.0;;
74741;SDS011;76291;48.288;16.314;2024-03-02T00:05:01;84.5;;;60.5;;
74741;SDS011;76291;48.288;16.314;2024-03-02T00:06:01;84.5;;;60.5;;
74741;SDS011;76291;48.288;16.314;2024-03-02T00:07:01;84.5;;;60.5;;
74741;SDS011;76291;48.288;16.314;2024-03-02T00:08:01;84.5;;;60.5;;
74741;SDS011;76291;48.288;16.314;2024-03-02T00:09:01;84.5;;;60.5;;
74741;SDS011;76291;48.288;16.314;2024-03-02T00:10:05;89.0;;;61.8;;
74741;SDS011;76291;48.288;16.314;2024-03-02T00:12:05;89.0;;;61.8;;
74741;SDS011;76291;48.288;16.314;2024-03-02T00:13:01;89.0;;;61.8;;
74741;SDS011;76291;48.288;16.314;2024-03-02T00:14:01;89.0;;;61.8;;
74741;SDS011;76291;48.288;16.314;2024-03-02T00:15:01;84.7;;;60.4;;
74741;SDS011;76291;48.288;16.314;2024-03-02T00:16:01;84.7;;;60.4;;
74741;SDS011;76291;48.288;16.314;2024-03-02T00:17:01;84.7;;;60.4;;
74741;SDS011;76291;48.288;16.314;2024-03-02T00:18:01;84.7;;;60.4;;
74741;SDS011;76291;48.288;16.314;2024-03-02T00:19:02;84.7;;;60.4;;
74741;SDS011;76291;48.288;16.314;2024-03-02T00:20:02;84.8;;;59.7;;
74741;SDS011;76291;48.288;16.314;2024-03-02T00:21:01;84.8;;;59.7;;
74741;SDS011;76291;48.288;16.314;2024-03-02T00:22:01;84.8;;;59.7;;
74741;SDS011;76291;48.288;16.314;2024-03-02T00:23:05;84.8;;;59.7;;
74741;SDS011;76291;48.288;16.314;2024-03-02T00:24:06;84.8;;;59.7;;
74741;SDS011;76291;48.288;16.314;2024-03-02T00:25:01;85.7;;;58.3;;
74741;SDS011;76291;48.288;16.314;2024-03-02T00:26:01;85.7;;;58.3;;
74741;SDS011;76291;48.288;16.314;2024-03-02T00:27:01;85.7;;;58.3;;
74741;SDS011;76291;48.288;16.314;2024-03-02T00:28:00;85.7;;;58.3;;
74741;SDS011;76291;48.288;16.314;2024-03-02T00:29:00;85.7;;;58.3;;
74741;SDS011;76291;48.288;16.314;2024-03-02T00:30:00;82.5;;;57.9;;
74741;SDS011;76291;48.288;16.314;2024-03-02T00:32:01;82.5;;;57.9;;
74741;SDS011;76291;48.288;16.314;2024-03-02T00:33:00;82.5;;;57.9;;
74741;SDS011;76291;48.288;16.314;2024-03-02T00:34:02;82.5;;;57.9;;
74741;SDS011;76291;48.288;16.314;2024-03-02T00:35:00;86.2;;;57.9;;
74741;SDS011;76291;48.288;16.314;2024-03-02T00:36:02;86.2;;;57.9;;
74741;SDS011;76291;48.288;16.314;2024-03-02T00:37:00;86.2;;;57.9;;
74741;SDS011;76291;48.288;16.314;2024-03-02T00:38:04;86.2;;;57.9;;
74741;SDS011;76291;48.288;16.314;2024-03-02T00:39:00;86.2;;;57.9;;
74741;SDS011;76291;48.288;16.314;2024-03-02T00:40:00;83.9;;;58.0;;
74741;SDS011;76291;48.288;16.314;2024-03-02T00:41:05;83.9;;;58.0;;
74741;SDS011;76291;48.288;16.314;2024-03-02T00:42:00;83.9;;;58.0;;
74741;SDS011;76291;48.288;16.314;2024-03-02T00:43:01;83.9;;;58.0;;
74741;SDS011;76291;48.288;16.314;2024-03-02T00:44:03;83.9;;;58.0;;
74741;SDS011;76291;48.288;16.314;2024-03-02T00:45:00;89.0;;;59.7;;
74741;SDS011;76291;48.288;16.314;2024-03-02T00:46:00;89.0;;;59.7;;
74741;SDS011;76291;48.288;16.314;2024-03-02T00:47:04;89.0;;;59.7;;
74741;SDS011;76291;48.288;16.314;2024-03-02T00:48:00;89.0;;;59.7;;
74741;SDS011;76291;48.288;16.314;2024-03-02T00:49:02;89.0;;;59.7;;
74741;SDS011;76291;48.288;16.314;2024-03-02T00:50:00;95.9;;;63.2;;
74741;SDS011;76291;48.288;16.314;2024-03-02T00:51:00;95.9;;;63.2;;
74741;SDS011;76291;48.288;16.314;2024-03-02T00:52:00;95.9;;;63.2;;
74741;SDS011;76291;48.288;16.314;2024-03-02T00:53:01;95.9;;;63.2;;
74741;SDS011;76291;48.288;16.314;2024-03-02T00:54:02;95.9;;;63.2;;
74741;SDS011;76291;48.288;16.314;2024-03-02T00:55:00;99.0;;;64.3;;
74741;SDS011;76291;48.288;16.314;2024-03-02T00:56:01;99.0;;;64.3;;
74741;SDS011;76291;48.288;16.314;2024-03-02T00:57:00;99.0;;;64.3;;
74741;SDS011;76291;48.288;16.314;2024-03-02T00:58:00;99.0;;;64.3;;
74741;SDS011;76291;48.288;16.314;2024-03-02T00:59:00;99.0;;;64.3;;
74741;SDS011;76291;48.288;16.314;2024-03-02T01:00:00;90.1;;;58.8;;
74741;SDS011;76291;48.288;16.314;2024-03-02T01:01:00;90.1;;;58.8;;
74741;SDS011;76291;48.288;16.314;2024-03-02T01:02:00;90.1;;;58.8;;
74741;SDS011;76291;48.288;16.314;2024-03-02T01:03:00;90.1;;;58.8;;
74741;SDS011;76291;48.288;16.314;2024-03-02T01:04:00;90.1;;;58.8;;
74741;SDS011;76291;48.288;16.314;2024-03-02T01:05:00;85.3;;;55.2;;
74741;SDS011;76291;48.288;16.314;2024-03-02T01:06:00;85.3;;;55.2;;
74741;SDS011;76291;48.288;16.314;2024-03-02T01:07:00;85.3;;;55.2;;
74741;SDS011;76291;48.288;16.314;2024-03-02T01:08:00;85.3;;;55.2;;
74741;SDS011;76291;48.288;16.314;2024-03-02T01:09:00;85.3;;;55.2;;
74741;SDS011;76291;48.288;16.314;2024-03-02T01:10:00;82.6;;;53.9;;
74741;SDS011;76291;48.288;16.314;2024-03-02T01:11:00;82.6;;;53.9;;
74741;SDS011;76291;48.288;16.314;2024-03-02T01:12:00;82.6;;;53.9;;
74741;SDS011;76291;48.288;16.314;2024-03-02T01:13:00;82.6;;;53.9;;
74741;SDS011;76291;48.288;16.314;2024-03-02T01:14:02;82.6;;;53.9;;
74741;SDS011;76291;48.288;16.314;2024-03-02T01:15:00;77.9;;;50.1;;
74741;SDS011;76291;48.288;16.314;2024-03-02T01:16:00;77.9;;;50.1;;
74741;SDS011;76291;48.288;16.314;2024-03-02T01:17:00;77.9;;;50.1;;
74741;SDS011;76291;48.288;16.314;2024-03-02T01:18:00;77.9;;;50.1;;
74741;SDS011;76291;48.288;16.314;2024-03-02T01:19:00;77.9;;;50.1;;
74741;SDS011;76291;48.288;16.314;2024-03-02T01:20:00;96.2;;;61.4;;
74741;SDS011;76291;48.288;16.314;2024-03-02T01:21:00;96.2;;;61.4;;
74741;SDS011;76291;48.288;16.314;2024-03-02T01:22:00;96.2;;;61.4;;
74741;SDS011;76291;48.288;16.314;2024-03-02T01:23:00;96.2;;;61.4;;
74741;SDS011;76291;48.288;16.314;2024-03-02T01:24:00;96.2;;;61.4;;
74741;SDS011;76291;48.288;16.314;2024-03-02T01:25:00;88.6;;;57.4;;
74741;SDS011;76291;48.288;16.314;2024-03-02T01:26:00;88.6;;;57.4;;
74741;SDS011;76291;48.288;16.314;2024-03-02T01:27:00;88.6;;;57.4;;
74741;SDS011;76291;48.288;16.314;2024-03-02T01:28:00;88.6;;;57.4;;
74741;SDS011;76291;48.288;16.314;2024-03-02T01:29:00;88.6;;;57.4;;
74741;SDS011;76291;48.288;16.314;2024-03-02T01:30:00;98.4;;;65.4;;
74741;SDS011;76291;48.288;16.314;2024-03-02T01:31:00;98.4;;;65.4;;
74741;SDS011;76291;48.288;16.314;2024-03-02T01:32:00;98.4;;;65.4;;
74741;SDS011;76291;48.288;16.314;2024-03-02T01:33:00;98.4;;;65.4;;
74741;SDS011;76291;48.288;16.314;2024-03-02T01:34:00;98.4;;;65.4;;
74741;SDS011;76291;48.288;16.314;2024-03-02T01:35:00;126.0;;;69.9;;
74741;SDS011;76291;48.288;16.314;2024-03-02T01:36:00;126.0;;;69.9;;
74741;SDS011;76291;48.288;16.314;2024-03-02T01:37:00;126.0;;;69.9;;
74741;SDS011;76291;48.288;16.314;2024-03-02T01:38:01;126.0;;;69.9;;
74741;SDS011;76291;48.288;16.314;2024-03-02T01:39:00;126.0;;;69.9;;
74741;SDS011;76291;48.288;16.314;2024-03-02T01:40:00;98.6;;;66.0;;
74741;SDS011;76291;48.288;16.314;2024-03-02T01:41:00;98.6;;;66.0;;
74741;SDS011;76291;48.288;16.314;2024-03-02T01:42:00;98.6;;;66.0;;
74741;SDS011;76291;48.288;16.314;2024-03-02T01:43:00;98.6;;;66.0;;
74741;SDS011;76291;48.288;16.314;2024-03-02T01:44:00;98.6;;;66.0;;
74741;SDS011;76291;48.288;16.314;2024-03-02T01:45:00;230.8;;;72.8;;
74741;SDS011;76291;48.288;16.314;2024-03-02T01:46:00;230.8;;;72.8;;
74741;SDS011;76291;48.288;16.314;2024-03-02T01:47:00;230.8;;;72.8;;
74741;SDS011;76291;48.288;16.314;2024-03-02T01:48:00;230.8;;;72.8;;
74741;SDS011;76291;48.288;16.314;2024-03-02T01:49:00;230.8;;;72.8;;
74741;SDS011;76291;48.288;16.314;2024-03-02T01:50:00;124.5;;;67.2;;
74741;SDS011;76291;48.288;16.314;2024-03-02T01:51:00;124.5;;;67.2;;
74741;SDS011;76291;48.288;16.314;2024-03-02T01:52:00;124.5;;;67.2;;
74741;SDS011;76291;48.288;16.314;2024-03-02T01:53:00;124.5;;;67.2;;
74741;SDS011;76291;48.288;16.314;2024-03-02T01:54:00;124.5;;;67.2;;
74741;SDS011;76291;48.288;16.314;2024-03-02T01:55:01;257.1;;;69.8;;
74741;SDS011;76291;48.288;16.314;2024-03-02T01:56:00;257.1;;;69.8;;
74741;SDS011;76291;48.288;16.314;2024-03-02T01:57:00;257.1;;;69.8;;
74741;SDS011;76291;48.288;16.314;2024-03-02T01:58:00;257.1;;;69.8;;
74741;SDS011;76291;48.288;16.314;2024-03-02T01:59:00;257.1;;;69.8;;
74741;SDS011;76291;48.288;16.314;2024-03-02T02:00:00;235.3;;;67.4;;
74741;SDS011;76291;48.288;16.314;2024-03-02T02:01:00;235.3;;;67.4;;
74741;SDS011;76291;48.288;16.314;2024-03-02T02:02:00;235.3;;;67.4;;
74741;SDS011;76291;48.288;16.314;2024-03-02T02:03:00;235.3;;;67.4;;
74741;SDS011;76291;48.288;16.314;2024-03-02T02:04:00;235.3;;;67.4;;
74741;SDS011;76291;48.288;16.314;2024-03-02T02:05:01;190.2;;;67.4;;
74741;SDS011;76291;48.288;16.314;2024-03-02T02:06:00;190.2;;;67.4;;
74741;SDS011;76291;48.288;16.314;2024-03-02T02:07:00;190.2;;;67.4;;
74741;SDS011;76291;48.288;16.314;2024-03-02T02:08:01;190.2;;;67.4;;
74741;SDS011;76291;48.288;16.314;2024-03-02T02:09:00;190.2;;;67.4;;
74741;SDS011;76291;48.288;16.314;2024-03-02T02:10:00;127.8;;;66.8;;
74741;SDS011;76291;48.288;16.314;2024-03-02T02:11:00;127.8;;;66.8;;
74741;SDS011;76291;48.288;16.314;2024-03-02T02:12:00;127.8;;;66.8;;
74741;SDS011;76291;48.288;16.314;2024-03-02T02:13:00;127.8;;;66.8;;
74741;SDS011;76291;48.288;16.314;2024-03-02T02:14:00;127.8;;;66.8;;
74741;SDS011;76291;48.288;16.314;2024-03-02T02:15:03;258.6;;;68.1;;
74741;SDS011;76291;48.288;16.314;2024-03-02T02:16:05;258.6;;;68.1;;
74741;SDS011;76291;48.288;16.314;2024-03-02T02:17:00;258.6;;;68.1;;
74741;SDS011;76291;48.288;16.314;2024-03-02T02:18:00;258.6;;;68.1;;
74741;SDS011;76291;48.288;16.314;2024-03-02T02:19:00;258.6;;;68.1;;
74741;SDS011;76291;48.288;16.314;2024-03-02T02:20:00;108.7;;;66.4;;
74741;SDS011;76291;48.288;16.314;2024-03-02T02:21:00;108.7;;;66.4;;
74741;SDS011;76291;48.288;16.314;2024-03-02T02:22:00;108.7;;;66.4;;
74741;SDS011;76291;48.288;16.314;2024-03-02T02:23:02;108.7;;;66.4;;
74741;SDS011;76291;48.288;16.314;2024-03-02T02:24:00;108.7;;;66.4;;
74741;SDS011;76291;48.288;16.314;2024-03-02T02:25:00;197.3;;;67.3;;
74741;SDS011;76291;48.288;16.314;2024-03-02T02:26:00;197.3;;;67.3;;
74741;SDS011;76291;48.288;16.314;2024-03-02T02:27:00;197.3;;;67.3;;
74741;SDS011;76291;48.288;16.314;2024-03-02T02:28:00;197.3;;;67.3;;
74741;SDS011;76291;48.288;16.314;2024-03-02T02:29:00;197.3;;;67.3;;
74741;SDS011;76291;48.288;16.314;2024-03-02T02:30:00;268.1;;;70.3;;
74741;SDS011;76291;48.288;16.314;2024-03-02T02:31:00;268.1;;;70.3;;
74741;SDS011;76291;48.288;16.314;2024-03-02T02:32:00;268.1;;;70.3;;
74741;SDS011;76291;48.288;16.314;2024-03-02T02:33:00;268.1;;;70.3;;
74741;SDS011;76291;48.288;16.314;2024-03-02T02:34:00;268.1;;;70.3;;
74741;SDS011;76291;48.288;16.314;2024-03-02T02:35:00;122.0;;;69.1;;
74741;SDS011;76291;48.288;16.314;2024-03-02T02:36:03;122.0;;;69.1;;
74741;SDS011;76291;48.288;16.314;2024-03-02T02:37:00;122.0;;;69.1;;
74741;SDS011;76291;48.288;16.314;2024-03-02T02:38:00;122.0;;;69.1;;
74741;SDS011;76291;48.288;16.314;2024-03-02T02:39:02;122.0;;;69.1;;
74741;SDS011;76291;48.288;16.314;2024-03-02T02:40:00;92.0;;;61.1;;
74741;SDS011;76291;48.288;16.314;2024-03-02T02:41:00;92.0;;;61.1;;
74741;SDS011;76291;48.288;16.314;2024-03-02T02:42:00;92.0;;;61.1;;
74741;SDS011;76291;48.288;16.314;2024-03-02T02:43:00;92.0;;;61.1;;
74741;SDS011;76291;48.288;16.314;2024-03-02T02:44:00;92.0;;;61.1;;
74741;SDS011;76291;48.288;16.314;2024-03-02T02:45:00;81.8;;;54.5;;
74741;SDS011;76291;48.288;16.314;2024-03-02T02:46:00;81.8;;;54.5;;
74741;SDS011;76291;48.288;16.314;2024-03-02T02:47:00;81.8;;;54.5;;
74741;SDS011;76291;48.288;16.314;2024-03-02T02:48:00;81.8;;;54.5;;
74741;SDS011;76291;48.288;16.314;2024-03-02T02:49:00;81.8;;;54.5;;
74741;SDS011;76291;48.288;16.314;2024-03-02T02:50:02;79.7;;;51.7;;
74741;SDS011;76291;48.288;16.314;2024-03-02T02:51:00;79.7;;;51.7;;
74741;SDS011;76291;48.288;16.314;2024-03-02T02:52:00;79.7;;;51.7;;
74741;SDS011;76291;48.288;16.314;2024-03-02T02:53:00;79.7;;;51.7;;
74741;SDS011;76291;48.288;16.314;2024-03-02T02:54:00;79.7;;;51.7;;
74741;SDS011;76291;48.288;16.314;2024-03-02T02:55:00;83.9;;;51.6;;
74741;SDS011;76291;48.288;16.314;2024-03-02T02:56:00;83.9;;;51.6;;
74741;SDS011;76291;48.288;16.314;2024-03-02T02:57:02;83.9;;;51.6;;
74741;SDS011;76291;48.288;16.314;2024-03-02T02:58:00;83.9;;;51.6;;
74741;SDS011;76291;48.288;16.314;2024-03-02T02:59:00;83.9;;;51.6;;
74741;SDS011;76291;48.288;16.314;2024-03-02T03:00:01;78.6;;;50.4;;
74741;SDS011;76291;48.288;16.314;2024-03-02T03:01:00;78.6;;;50.4;;
74741;SDS011;76291;48.288;16.314;2024-03-02T03:02:01;78.6;;;50.4;;
74741;SDS011;76291;48.288;16.314;2024-03-02T03:03:00;78.6;;;50.4;;
74741;SDS011;76291;48.288;16.314;2024-03-02T03:04:00;78.6;;;50.4;;
74741;SDS011;76291;48.288;16.314;2024-03-02T03:05:00;89.2;;;55.5;;
74741;SDS011;76291;48.288;16.314;2024-03-02T03:06:00;89.2;;;55.5;;
74741;SDS011;76291;48.288;16.314;2024-03-02T03:07:00;89.2;;;55.5;;
74741;SDS011;76291;48.288;16.314;2024-03-02T03:08:00;89.2;;;55.5;;
74741;SDS011;76291;48.288;16.314;2024-03-02T03:09:00;89.2;;;55.5;;
74741;SDS011;76291;48.288;16.314;2024-03-02T03:10:00;98.0;;;61.3;;
74741;SDS011;76291;48.288;16.314;2024-03-02T03:11:00;98.0;;;61.3;;
74741;SDS011;76291;48.288;16.314;2024-03-02T03:12:00;98.0;;;61.3;;
74741;SDS011;76291;48.288;16.314;2024-03-02T03:13:00;98.0;;;61.3;;
74741;SDS011;76291;48.288;16.314;2024-03-02T03:14:00;98.0;;;61.3;;
74741;SDS011;76291;48.288;16.314;2024-03-02T03:15:00;207.2;;;66.8;;
74741;SDS011;76291;48.288;16.314;2024-03-02T03:16:00;207.2;;;66.8;;
74741;SDS011;76291;48.288;16.314;2024-03-02T03:17:00;207.2;;;66.8;;
74741;SDS011;76291;48.288;16.314;2024-03-02T03:18:01;207.2;;;66.8;;
74741;SDS011;76291;48.288;16.314;2024-03-02T03:19:00;207.2;;;66.8;;
74741;SDS011;76291;48.288;16.314;2024-03-02T03:20:01;187.2;;;68.7;;
74741;SDS011;76291;48.288;16.314;2024-03-02T03:21:00;187.2;;;68.7;;
74741;SDS011;76291;48.288;16.314;2024-03-02T03:22:00;187.2;;;68.7;;
74741;SDS011;76291;48.288;16.314;2024-03-02T03:23:00;187.2;;;68.7;;
74741;SDS011;76291;48.288;16.314;2024-03-02T03:24:00;187.2;;;68.7;;
74741;SDS011;76291;48.288;16.314;2024-03-02T03:25:00;162.5;;;68.6;;
74741;SDS011;76291;48.288;16.314;2024-03-02T03:26:00;162.5;;;68.6;;
74741;SDS011;76291;48.288;16.314;2024-03-02T03:27:00;162.5;;;68.6;;
74741;SDS011;76291;48.288;16.314;2024-03-02T03:28:00;162.5;;;68.6;;
74741;SDS011;76291;48.288;16.314;2024-03-02T03:29:00;162.5;;;68.6;;
74741;SDS011;76291;48.288;16.314;2024-03-02T03:30:00;148.9;;;67.4;;
74741;SDS011;76291;48.288;16.314;2024-03-02T03:31:00;148.9;;;67.4;;
74741;SDS011;76291;48.288;16.314;2024-03-02T03:32:00;148.9;;;67.4;;
74741;SDS011;76291;48.288;16.314;2024-03-02T03:33:00;148.9;;;67.4;;
74741;SDS011;76291;48.288;16.314;2024-03-02T03:34:00;148.9;;;67.4;;
74741;SDS011;76291;48.288;16.314;2024-03-02T03:35:00;185.4;;;66.0;;
74741;SDS011;76291;48.288;16.314;2024-03-02T03:36:00;185.4;;;66.0;;
74741;SDS011;76291;48.288;16.314;2024-03-02T03:37:00;185.4;;;66.0;;
74741;SDS011;76291;48.288;16.314;2024-03-02T03:38:00;185.4;;;66.0;;
74741;SDS011;76291;48.288;16.314;2024-03-02T03:39:00;185.4;;;66.0;;
74741;SDS011;76291;48.288;16.314;2024-03-02T03:40:02;110.3;;;62.5;;
74741;SDS011;76291;48.288;16.314;2024-03-02T03:41:00;110.3;;;62.5;;
74741;SDS011;76291;48.288;16.314;2024-03-02T03:42:00;110.3;;;62.5;;
74741;SDS011;76291;48.288;16.314;2024-03-02T03:43:00;110.3;;;62.5;;
74741;SDS011;76291;48.288;16.314;2024-03-02T03:44:00;110.3;;;62.5;;
74741;SDS011;76291;48.288;16.314;2024-03-02T03:45:00;91.9;;;61.7;;
74741;SDS011;76291;48.288;16.314;2024-03-02T03:46:00;91.9;;;61.7;;
74741;SDS011;76291;48.288;16.314;2024-03-02T03:47:00;91.9;;;61.7;;
74741;SDS011;76291;48.288;16.314;2024-03-02T03:48:00;91.9;;;61.7;;
74741;SDS011;76291;48.288;16.314;2024-03-02T03:49:00;91.9;;;61.7;;
74741;SDS011;76291;48.288;16.314;2024-03-02T03:50:00;160.6;;;66.5;;
74741;SDS011;76291;48.288;16.314;2024-03-02T03:51:00;160.6;;;66.5;;
74741;SDS011;76291;48.288;16.314;2024-03-02T03:52:00;160.6;;;66.5;;
74741;SDS011;76291;48.288;16.314;2024-03-02T03:53:00;160.6;;;66.5;;
74741;SDS011;76291;48.288;16.314;2024-03-02T03:54:00;160.6;;;66.5;;
74741;SDS011;76291;48.288;16.314;2024-03-02T03:55:00;178.4;;;67.1;;
74741;SDS011;76291;48.288;16.314;2024-03-02T03:56:00;178.4;;;67.1;;
74741;SDS011;76291;48.288;16.314;2024-03-02T03:57:00;178.4;;;67.1;;
74741;SDS011;76291;48.288;16.314;2024-03-02T03:58:00;178.4;;;67.1;;
74741;SDS011;76291;48.288;16.314;2024-03-02T03:59:00;178.4;;;67.1;;
74741;SDS011;76291;48.288;16.314;2024-03-02T04:00:00;519.7;;;76.4;;
74741;SDS011;76291;48.288;16.314;2024-03-02T04:01:00;519.7;;;76.4;;
74741;SDS011;76291;48.288;16.314;2024-03-02T04:02:00;519.7;;;76.4;;
74741;SDS011;76291;48.288;16.314;2024-03-02T04:03:00;519.7;;;76.4;;
74741;SDS011;76291;48.288;16.314;2024-03-02T04:04:00;519.7;;;76.4;;
74741;SDS011;76291;48.288;16.314;2024-03-02T04:05:00;166.7;;;65.6;;
74741;SDS011;76291;48.288;16.314;2024-03-02T04:06:00;166.7;;;65.6;;
74741;SDS011;76291;48.288;16.314;2024-03-02T04:07:00;166.7;;;65.6;;
74741;SDS011;76291;48.288;16.314;2024-03-02T04:08:00;166.7;;;65.6;;
74741;SDS011;76291;48.288;16.314;2024-03-02T04:09:00;166.7;;;65.6;;
74741;SDS011;76291;48.288;16.314;2024-03-02T04:10:02;92.3;;;60.2;;
74741;SDS011;76291;48.288;16.314;2024-03-02T04:11:00;92.3;;;60.2;;
74741;SDS011;76291;48.288;16.314;2024-03-02T04:12:00;92.3;;;60.2;;
74741;SDS011;76291;48.288;16.314;2024-03-02T04:13:00;92.3;;;60.2;;
74741;SDS011;76291;48.288;16.314;2024-03-02T04:14:00;96.4;;;57.1;;
74741;SDS011;76291;48.288;16.314;2024-03-02T04:15:00;96.4;;;57.1;;
74741;SDS011;76291;48.288;16.314;2024-03-02T04:16:00;96.4;;;57.1;;
74741;SDS011;76291;48.288;16.314;2024-03-02T04:17:00;96.4;;;57.1;;
74741;SDS011;76291;48.288;16.314;2024-03-02T04:18:00;96.4;;;57.1;;
74741;SDS011;76291;48.288;16.314;2024-03-02T04:19:00;100.8;;;57.6;;
74741;SDS011;76291;48.288;16.314;2024-03-02T04:20:00;100.8;;;57.6;;
74741;SDS011;76291;48.288;16.314;2024-03-02T04:21:03;100.8;;;57.6;;
74741;SDS011;76291;48.288;16.314;2024-03-02T04:22:00;100.8;;;57.6;;
74741;SDS011;76291;48.288;16.314;2024-03-02T04:23:00;100.8;;;57.6;;
74741;SDS011;76291;48.288;16.314;2024-03-02T04:24:00;89.2;;;53.0;;
74741;SDS011;76291;48.288;16.314;2024-03-02T04:25:00;89.2;;;53.0;;
74741;SDS011;76291;48.288;16.314;2024-03-02T04:26:00;89.2;;;53.0;;
74741;SDS011;76291;48.288;16.314;2024-03-02T04:27:00;89.2;;;53.0;;
74741;SDS011;76291;48.288;16.314;2024-03-02T04:28:00;89.2;;;53.0;;
74741;SDS011;76291;48.288;16.314;2024-03-02T04:29:00;90.2;;;53.6;;
74741;SDS011;76291;48.288;16.314;2024-03-02T04:30:00;90.2;;;53.6;;
74741;SDS011;76291;48.288;16.314;2024-03-02T04:31:00;90.2;;;53.6;;
74741;SDS011;76291;48.288;16.314;2024-03-02T04:32:02;90.2;;;53.6;;
74741;SDS011;76291;48.288;16.314;2024-03-02T04:33:00;90.2;;;53.6;;
74741;SDS011;76291;48.288;16.314;2024-03-02T04:34:00;78.4;;;50.2;;
74741;SDS011;76291;48.288;16.314;2024-03-02T04:35:00;78.4;;;50.2;;
74741;SDS011;76291;48.288;16.314;2024-03-02T04:36:00;78.4;;;50.2;;
74741;SDS011;76291;48.288;16.314;2024-03-02T04:37:00;78.4;;;50.2;;
74741;SDS011;76291;48.288;16.314;2024-03-02T04:38:00;78.4;;;50.2;;
74741;SDS011;76291;48.288;16.314;2024-03-02T04:39:00;89.2;;;53.7;;
74741;SDS011;76291;48.288;16.314;2024-03-02T04:40:00;89.2;;;53.7;;
74741;SDS011;76291;48.288;16.314;2024-03-02T04:41:00;89.2;;;53.7;;
74741;SDS011;76291;48.288;16.314;2024-03-02T04:42:00;89.2;;;53.7;;
74741;SDS011;76291;48.288;16.314;2024-03-02T04:43:00;89.2;;;53.7;;
74741;SDS011;76291;48.288;16.314;2024-03-02T04:44:00;80.7;;;48.7;;
74741;SDS011;76291;48.288;16.314;2024-03-02T04:45:00;80.7;;;48.7;;
74741;SDS011;76291;48.288;16.314;2024-03-02T04:46:00;80.7;;;48.7;;
74741;SDS011;76291;48.288;16.314;2024-03-02T04:47:00;80.7;;;48.7;;
74741;SDS011;76291;48.288;16.314;2024-03-02T04:48:00;80.7;;;48.7;;
74741;SDS011;76291;48.288;16.314;2024-03-02T04:49:00;72.1;;;46.1;;
74741;SDS011;76291;48.288;16.314;2024-03-02T04:50:00;72.1;;;46.1;;
74741;SDS011;76291;48.288;16.314;2024-03-02T04:51:00;72.1;;;46.1;;
74741;SDS011;76291;48.288;16.314;2024-03-02T04:52:00;72.1;;;46.1;;
74741;SDS011;76291;48.288;16.314;2024-03-02T04:53:00;72.1;;;46.1;;
74741;SDS011;76291;48.288;16.314;2024-03-02T04:54:00;67.4;;;44.1;;
74741;SDS011;76291;48.288;16.314;2024-03-02T04:55:00;67.4;;;44.1;;
74741;SDS011;76291;48.288;16.314;2024-03-02T04:56:00;67.4;;;44.1;;
74741;SDS011;76291;48.288;16.314;2024-03-02T04:57:00;67.4;;;44.1;;
74741;SDS011;76291;48.288;16.314;2024-03-02T04:58:00;67.4;;;44.1;;
74741;SDS011;76291;48.288;16.314;2024-03-02T04:59:00;69.0;;;43.0;;
74741;SDS011;76291;48.288;16.314;2024-03-02T05:00:00;69.0;;;43.0;;
74741;SDS011;76291;48.288;16.314;2024-03-02T05:01:00;69.0;;;43.0;;
74741;SDS011;76291;48.288;16.314;2024-03-02T05:02:00;69.0;;;43.0;;
74741;SDS011;76291;48.288;16.314;2024-03-02T05:03:01;69.0;;;43.0;;
74741;SDS011;76291;48.288;16.314;2024-03-02T05:04:00;68.3;;;44.1;;
74741;SDS011;76291;48.288;16.314;2024-03-02T05:05:03;68.3;;;44.1;;
74741;SDS011;76291;48.288;16.314;2024-03-02T05:06:00;68.3;;;44.1;;
74741;SDS011;76291;48.288;16.314;2024-03-02T05:07:00;68.3;;;44.1;;
74741;SDS011;76291;48.288;16.314;2024-03-02T05:08:00;68.3;;;44.1;;
74741;SDS011;76291;48.288;16.314;2024-03-02T05:09:00;130.2;;;48.8;;
74741;SDS011;76291;48.288;16.314;2024-03-02T05:10:00;130.2;;;48.8;;
74741;SDS011;76291;48.288;16.314;2024-03-02T05:11:00;130.2;;;48.8;;
74741;SDS011;76291;48.288;16.314;2024-03-02T05:12:00;130.2;;;48.8;;
74741;SDS011;76291;48.288;16.314;2024-03-02T05:13:00;130.2;;;48.8;;
74741;SDS011;76291;48.288;16.314;2024-03-02T05:14:00;247.6;;;50.3;;
74741;SDS011;76291;48.288;16.314;2024-03-02T05:15:00;247.6;;;50.3;;
74741;SDS011;76291;48.288;16.314;2024-03-02T05:16:00;247.6;;;50.3;;
74741;SDS011;76291;48.288;16.314;2024-03-02T05:17:00;247.6;;;50.3;;
74741;SDS011;76291;48.288;16.314;2024-03-02T05:18:00;247.6;;;50.3;;
74741;SDS011;76291;48.288;16.314;2024-03-02T05:19:00;205.5;;;48.2;;
74741;SDS011;76291;48.288;16.314;2024-03-02T05:20:00;205.5;;;48.2;;
74741;SDS011;76291;48.288;16.314;2024-03-02T05:21:00;205.5;;;48.2;;
74741;SDS011;76291;48.288;16.314;2024-03-02T05:22:00;205.5;;;48.2;;
74741;SDS011;76291;48.288;16.314;2024-03-02T05:23:00;205.5;;;48.2;;
74741;SDS011;76291;48.288;16.314;2024-03-02T05:24:00;80.4;;;44.0;;
74741;SDS011;76291;48.288;16.314;2024-03-02T05:25:01;80.4;;;44.0;;
74741;SDS011;76291;48.288;16.314;2024-03-02T05:26:00;80.4;;;44.0;;
74741;SDS011;76291;48.288;16.314;2024-03-02T05:27:00;80.4;;;44.0;;
74741;SDS011;76291;48.288;16.314;2024-03-02T05:28:00;80.4;;;44.0;;
74741;SDS011;76291;48.288;16.314;2024-03-02T05:29:00;76.6;;;43.2;;
74741;SDS011;76291;48.288;16.314;2024-03-02T05:30:01;76.6;;;43.2;;
74741;SDS011;76291;48.288;16.314;2024-03-02T05:31:00;76.6;;;43.2;;
74741;SDS011;76291;48.288;16.314;2024-03-02T05:32:00;76.6;;;43.2;;
74741;SDS011;76291;48.288;16.314;2024-03-02T05:33:03;76.6;;;43.2;;
74741;SDS011;76291;48.288;16.314;2024-03-02T05:34:00;145.8;;;44.1;;
74741;SDS011;76291;48.288;16.314;2024-03-02T05:35:00;145.8;;;44.1;;
74741;SDS011;76291;48.288;16.314;2024-03-02T05:36:00;145.8;;;44.1;;
74741;SDS011;76291;48.288;16.314;2024-03-02T05:37:01;145.8;;;44.1;;
74741;SDS011;76291;48.288;16.314;2024-03-02T05:38:00;145.8;;;44.1;;
74741;SDS011;76291;48.288;16.314;2024-03-02T05:39:00;80.8;;;44.4;;
74741;SDS011;76291;48.288;16.314;2024-03-02T05:40:00;80.8;;;44.4;;
74741;SDS011;76291;48.288;16.314;2024-03-02T05:41:00;80.8;;;44.4;;
74741;SDS011;76291;48.288;16.314;2024-03-02T05:42:00;80.8;;;44.4;;
74741;SDS011;76291;48.288;16.314;2024-03-02T05:43:02;80.8;;;44.4;;
74741;SDS011;76291;48.288;16.314;2024-03-02T05:44:00;296.1;;;49.2;;
74741;SDS011;76291;48.288;16.314;2024-03-02T05:45:00;296.1;;;49.2;;
74741;SDS011;76291;48.288;16.314;2024-03-02T05:46:00;296.1;;;49.2;;
74741;SDS011;76291;48.288;16.314;2024-03-02T05:47:00;296.1;;;49.2;;
74741;SDS011;76291;48.288;16.314;2024-03-02T05:48:00;296.1;;;49.2;;
74741;SDS011;76291;48.288;16.314;2024-03-02T05:49:00;132.8;;;49.2;;
74741;SDS011;76291;48.288;16.314;2024-03-02T05:50:00;132.8;;;49.2;;
74741;SDS011;76291;48.288;16.314;2024-03-02T05:51:00;132.8;;;49.2;;
74741;SDS011;76291;48.288;16.314;2024-03-02T05:52:00;132.8;;;49.2;;
74741;SDS011;76291;48.288;16.314;2024-03-02T05:53:00;132.8;;;49.2;;
74741;SDS011;76291;48.288;16.314;2024-03-02T05:54:01;129.6;;;52.5;;
74741;SDS011;76291;48.288;16.314;2024-03-02T05:55:00;129.6;;;52.5;;